createdAt,value
2023-04-20T00:00:45.260Z,89.60
2023-04-20T00:03:13.943Z,89.70
2023-04-20T00:05:41.794Z,89.70
2023-04-20T00:08:09.306Z,89.80
2023-04-20T00:10:36.714Z,89.90
2023-04-20T00:13:04.209Z,90.00
2023-04-20T00:15:31.692Z,90.00
2023-04-20T00:17:59.435Z,90.00
2023-04-20T00:20:27.658Z,90.10
2023-04-20T00:22:55.474Z,90.10
2023-04-20T00:25:23.778Z,90.20
2023-04-20T00:27:51.257Z,90.20
2023-04-20T00:30:18.785Z,90.30
2023-04-20T00:32:46.523Z,90.30
2023-04-20T00:35:14.784Z,90.40
2023-04-20T00:37:42.362Z,90.40
2023-04-20T00:40:10.190Z,90.50
2023-04-20T00:42:38.035Z,90.60
2023-04-20T00:45:06.175Z,90.60
2023-04-20T00:47:34.132Z,90.70
2023-04-20T00:50:03.732Z,90.70
2023-04-20T00:52:32.275Z,90.80
2023-04-20T00:54:59.947Z,90.90
2023-04-20T00:57:28.358Z,90.90
2023-04-20T00:59:55.996Z,91.00
2023-04-20T01:02:23.572Z,91.00
2023-04-20T01:04:51.222Z,91.10
2023-04-20T01:07:18.600Z,91.10
2023-04-20T01:09:46.092Z,91.20
2023-04-20T01:12:13.467Z,91.20
2023-04-20T01:14:41.110Z,91.30
2023-04-20T01:17:09.577Z,91.40
2023-04-20T01:19:37.046Z,91.40
2023-04-20T01:22:04.684Z,91.50
2023-04-20T01:24:32.262Z,91.60
2023-04-20T01:27:01.532Z,91.70
2023-04-20T01:29:29.840Z,91.70
2023-04-20T01:31:57.662Z,91.80
2023-04-20T01:34:25.893Z,91.90
2023-04-20T01:36:54.650Z,92.00
2023-04-20T01:39:22.528Z,92.10
2023-04-20T01:41:50.153Z,92.20
2023-04-20T01:44:18.492Z,92.30
2023-04-20T01:46:46.169Z,92.40
2023-04-20T01:49:13.988Z,92.50
2023-04-20T01:51:41.861Z,92.60
2023-04-20T01:54:09.372Z,92.60
2023-04-20T01:56:37.108Z,92.70
2023-04-20T01:59:04.652Z,92.80
2023-04-20T02:01:32.369Z,92.90
2023-04-20T02:04:01.481Z,92.90
2023-04-20T02:06:29.167Z,93.00
2023-04-20T02:08:56.687Z,93.10
2023-04-20T02:11:24.136Z,93.10
2023-04-20T02:13:51.921Z,93.20
2023-04-20T02:16:19.541Z,93.30
2023-04-20T02:18:47.287Z,93.30
2023-04-20T02:21:14.951Z,93.40
2023-04-20T02:23:42.744Z,93.50
2023-04-20T02:26:10.169Z,93.60
2023-04-20T02:28:40.999Z,93.60
2023-04-20T02:31:09.372Z,93.60
2023-04-20T02:33:37.090Z,93.70
2023-04-20T02:36:05.006Z,93.80
2023-04-20T02:38:33.690Z,93.90
2023-04-20T02:41:01.827Z,94.00
2023-04-20T02:43:31.557Z,94.00
2023-04-20T02:46:00.449Z,94.10
2023-04-20T02:48:28.157Z,94.20
2023-04-20T02:50:57.269Z,94.20
2023-04-20T02:53:27.522Z,94.30
2023-04-20T02:56:17.951Z,94.40
2023-04-20T02:58:52.250Z,94.40
2023-04-20T03:01:30.361Z,94.50
2023-04-20T03:04:11.029Z,94.50
2023-04-20T03:06:45.217Z,94.50
2023-04-20T03:09:18.559Z,94.60
2023-04-20T03:12:08.602Z,94.70
2023-04-20T03:14:49.833Z,94.70
2023-04-20T03:17:20.746Z,94.80
2023-04-20T03:19:48.271Z,94.90
2023-04-20T03:22:15.948Z,94.90
2023-04-20T03:24:43.925Z,95.00
2023-04-20T03:27:24.900Z,95.10
2023-04-20T03:30:02.792Z,95.10
2023-04-20T03:32:32.746Z,95.20
2023-04-20T03:35:01.186Z,95.30
2023-04-20T03:37:29.389Z,95.30
2023-04-20T03:39:56.956Z,95.40
2023-04-20T03:42:26.053Z,95.40
2023-04-20T03:44:55.505Z,95.50
2023-04-20T03:47:23.426Z,95.60
2023-04-20T03:49:51.268Z,95.60
2023-04-20T03:52:18.859Z,95.60
2023-04-20T03:54:46.549Z,95.70
2023-04-20T03:57:16.578Z,95.70
2023-04-20T03:59:45.033Z,95.70
2023-04-20T04:02:17.505Z,95.80
2023-04-20T04:04:47.361Z,95.90
2023-04-20T04:07:14.905Z,95.90
2023-04-20T04:09:43.918Z,95.90
2023-04-20T04:12:12.692Z,96.00
2023-04-20T04:14:41.917Z,96.00
2023-04-20T04:17:11.016Z,96.10
2023-04-20T04:19:43.622Z,96.20
2023-04-20T04:22:11.237Z,96.20
2023-04-20T04:24:48.846Z,96.20
2023-04-20T04:27:18.490Z,96.20
2023-04-20T04:29:54.391Z,96.10
2023-04-20T04:37:23.093Z,96.40
2023-04-20T04:39:55.111Z,96.20
2023-04-20T04:42:34.905Z,96.70
2023-04-20T04:45:04.986Z,96.40
2023-04-20T04:47:35.891Z,96.50
2023-04-20T04:50:04.788Z,96.50
2023-04-20T04:52:33.627Z,96.60
2023-04-20T04:55:10.018Z,96.60
2023-04-20T04:57:38.684Z,96.60
2023-04-20T05:00:09.515Z,96.60
2023-04-20T05:02:37.502Z,96.60
2023-04-20T05:05:07.566Z,96.60
2023-04-20T05:07:38.607Z,96.60
2023-04-20T05:10:07.748Z,96.60
2023-04-20T05:12:35.254Z,96.70
2023-04-20T05:15:03.301Z,96.70
2023-04-20T05:17:31.380Z,96.80
2023-04-20T05:19:59.008Z,96.80
2023-04-20T05:22:26.966Z,96.80
2023-04-20T05:24:55.054Z,96.90
2023-04-20T05:27:22.713Z,96.90
2023-04-20T05:29:50.876Z,96.90
2023-04-20T05:32:18.808Z,96.90
2023-04-20T05:34:46.797Z,97.00
2023-04-20T05:37:16.150Z,97.40
2023-04-20T05:39:43.808Z,97.10
2023-04-20T05:42:11.790Z,97.10
2023-04-20T05:44:41.119Z,97.20
2023-04-20T05:47:08.700Z,97.20
2023-04-20T05:49:36.725Z,97.30
2023-04-20T05:52:04.251Z,97.40
2023-04-20T05:54:31.993Z,97.40
2023-04-20T05:57:00.045Z,97.50
2023-04-20T05:59:27.864Z,97.80
2023-04-20T06:01:56.393Z,97.50
2023-04-20T06:04:25.982Z,97.60
2023-04-20T06:06:55.240Z,97.60
2023-04-20T06:09:22.814Z,97.60
2023-04-20T06:11:50.731Z,97.70
2023-04-20T06:14:18.399Z,97.70
2023-04-20T06:16:45.974Z,97.70
2023-04-20T06:19:13.696Z,97.70
2023-04-20T06:21:41.602Z,97.70
2023-04-20T06:24:09.634Z,97.70
2023-04-20T06:26:37.320Z,97.70
2023-04-20T06:29:04.889Z,97.70
2023-04-20T06:31:32.899Z,97.80
2023-04-20T06:34:00.864Z,97.80
2023-04-20T06:36:30.865Z,97.70
2023-04-20T06:38:58.887Z,97.70
2023-04-20T06:41:26.768Z,97.60
2023-04-20T06:43:54.249Z,97.60
2023-04-20T06:46:21.975Z,97.60
2023-04-20T06:48:49.735Z,97.60
2023-04-20T06:51:17.672Z,97.60
2023-04-20T06:53:49.080Z,97.50
2023-04-20T06:56:17.077Z,97.50
2023-04-20T06:58:45.390Z,97.50
2023-04-20T07:01:13.142Z,97.40
2023-04-20T07:03:41.414Z,97.30
2023-04-20T07:06:11.332Z,97.30
2023-04-20T07:08:40.106Z,97.20
2023-04-20T07:11:11.135Z,97.20
2023-04-20T07:13:38.917Z,97.10
2023-04-20T07:16:08.195Z,97.10
2023-04-20T07:18:35.950Z,97.00
2023-04-20T07:21:03.660Z,97.00
2023-04-20T07:23:31.593Z,97.00
2023-04-20T07:26:00.097Z,96.90
2023-04-20T07:28:31.217Z,96.90
2023-04-20T07:30:59.718Z,96.80
2023-04-20T07:33:29.866Z,96.70
2023-04-20T07:35:57.575Z,96.60
2023-04-20T07:38:25.485Z,96.60
2023-04-20T07:40:53.306Z,96.50
2023-04-20T07:43:21.102Z,96.50
2023-04-20T07:45:48.875Z,96.40
2023-04-20T07:48:16.731Z,96.40
2023-04-20T07:50:44.601Z,96.30
2023-04-20T07:53:22.501Z,96.20
2023-04-20T07:55:51.178Z,96.00
2023-04-20T07:58:21.490Z,95.90
2023-04-20T08:00:50.867Z,95.80
2023-04-20T08:03:18.783Z,95.70
2023-04-20T08:05:46.858Z,95.70
2023-04-20T08:08:14.807Z,95.50
2023-04-20T08:10:46.267Z,95.50
2023-04-20T08:13:14.550Z,95.30
2023-04-20T08:15:42.306Z,95.10
2023-04-20T08:18:11.623Z,94.70
2023-04-20T08:20:39.204Z,94.30
2023-04-20T08:23:07.074Z,94.10
2023-04-20T08:25:35.039Z,94.00
2023-04-20T08:28:04.128Z,93.80
2023-04-20T08:30:35.713Z,93.50
2023-04-20T08:33:03.951Z,93.10
2023-04-20T08:35:32.291Z,92.70
2023-04-20T08:38:00.469Z,92.70
2023-04-20T08:40:30.182Z,92.10
2023-04-20T08:43:02.275Z,91.50
2023-04-20T08:45:30.653Z,91.00
2023-04-20T08:48:00.058Z,90.70
2023-04-20T08:50:27.738Z,90.30
2023-04-20T08:52:55.711Z,89.80
2023-04-20T08:55:23.420Z,88.30
2023-04-20T08:57:51.278Z,86.50
2023-04-20T09:00:19.270Z,85.80
2023-04-20T09:02:55.793Z,85.40
2023-04-20T09:05:31.465Z,84.50
2023-04-20T09:08:01.312Z,84.40
2023-04-20T09:10:42.184Z,83.60
2023-04-20T09:13:21.426Z,81.60
2023-04-20T09:15:49.067Z,82.00
2023-04-20T09:18:17.540Z,81.20
2023-04-20T09:20:46.111Z,80.80
2023-04-20T09:23:19.006Z,79.60
2023-04-20T09:25:50.815Z,78.60
2023-04-20T09:28:18.824Z,77.70
2023-04-20T09:30:49.350Z,76.80
2023-04-20T09:33:19.748Z,75.20
2023-04-20T09:35:48.379Z,74.80
2023-04-20T09:38:17.687Z,75.00
2023-04-20T09:40:45.992Z,75.30
2023-04-20T09:43:19.608Z,73.60
2023-04-20T09:45:48.043Z,72.60
2023-04-20T09:48:19.254Z,71.40
2023-04-20T09:50:50.717Z,71.10
2023-04-20T09:53:20.262Z,71.00
2023-04-20T09:55:52.087Z,71.20
2023-04-20T09:58:21.636Z,69.40
2023-04-20T10:00:50.240Z,68.10
2023-04-20T10:03:19.489Z,67.80
2023-04-20T10:05:47.933Z,67.50
2023-04-20T10:08:15.896Z,66.60
2023-04-20T10:10:46.396Z,66.50
2023-04-20T10:13:15.733Z,65.40
2023-04-20T10:15:43.858Z,65.20
2023-04-20T10:18:25.184Z,65.20
2023-04-20T10:21:07.051Z,64.40
2023-04-20T10:23:34.947Z,63.80
2023-04-20T10:26:03.777Z,64.70
2023-04-20T10:28:43.025Z,64.10
2023-04-20T10:31:17.041Z,63.60
2023-04-20T10:33:53.293Z,63.80
2023-04-20T10:36:29.808Z,63.30
2023-04-20T10:39:05.497Z,67.10
2023-04-20T10:41:33.518Z,65.30
2023-04-20T10:44:09.083Z,64.30
2023-04-20T10:46:36.887Z,61.10
2023-04-20T10:49:04.596Z,60.00
2023-04-20T10:51:32.414Z,60.40
2023-04-20T10:54:05.293Z,59.60
2023-04-20T10:56:41.434Z,58.50
2023-04-20T10:59:11.395Z,57.70
2023-04-20T11:01:39.894Z,57.80
2023-04-20T11:04:10.459Z,57.60
2023-04-20T11:06:42.074Z,56.70
2023-04-20T11:09:26.804Z,56.40
2023-04-20T11:12:02.314Z,54.80
2023-04-20T11:14:31.494Z,55.00
2023-04-20T11:16:59.430Z,54.10
2023-04-20T11:19:30.649Z,53.40
2023-04-20T11:21:58.743Z,52.80
2023-04-20T11:24:28.987Z,51.30
2023-04-20T11:26:58.126Z,50.60
2023-04-20T11:29:32.537Z,50.20
2023-04-20T11:32:10.952Z,49.60
2023-04-20T11:34:40.374Z,49.80
2023-04-20T11:37:10.617Z,49.80
2023-04-20T11:39:39.318Z,49.80
2023-04-20T11:42:07.706Z,49.10
2023-04-20T11:44:37.255Z,48.50
2023-04-20T11:47:08.046Z,48.80
2023-04-20T11:49:40.746Z,48.60
2023-04-20T11:52:09.723Z,48.60
2023-04-20T11:54:38.567Z,48.60
2023-04-20T11:57:06.572Z,47.80
2023-04-20T11:59:37.319Z,47.50
2023-04-20T12:02:06.086Z,47.10
2023-04-20T12:04:35.112Z,45.90
2023-04-20T12:07:03.925Z,45.40
2023-04-20T12:09:36.270Z,45.00
2023-04-20T12:12:08.743Z,44.70
2023-04-20T12:14:37.544Z,44.60
2023-04-20T12:17:05.695Z,44.70
2023-04-20T12:19:34.405Z,44.80
2023-04-20T12:22:02.193Z,44.20
2023-04-20T12:24:30.105Z,43.70
2023-04-20T12:26:59.620Z,43.40
2023-04-20T12:29:27.886Z,43.20
2023-04-20T12:31:56.477Z,43.10
2023-04-20T12:34:24.297Z,43.00
2023-04-20T12:36:51.808Z,42.70
2023-04-20T12:39:19.804Z,42.20
2023-04-20T12:41:47.879Z,42.10
2023-04-20T12:44:16.299Z,41.60
2023-04-20T12:46:44.161Z,41.80
2023-04-20T12:49:12.175Z,41.50
2023-04-20T12:51:41.118Z,40.90
2023-04-20T12:54:09.184Z,40.80
2023-04-20T12:56:37.069Z,40.10
2023-04-20T12:59:04.853Z,39.50
2023-04-20T13:01:33.001Z,38.90
2023-04-20T13:04:01.573Z,38.90
2023-04-20T13:06:29.346Z,37.90
2023-04-20T13:08:57.214Z,37.70
2023-04-20T13:11:26.737Z,37.40
2023-04-20T13:13:56.542Z,37.60
2023-04-20T13:16:24.371Z,38.50
2023-04-20T13:18:51.963Z,37.10
2023-04-20T13:21:19.563Z,37.30
2023-04-20T13:23:47.257Z,37.20
2023-04-20T13:26:15.160Z,36.50
2023-04-20T13:28:42.891Z,35.20
2023-04-20T13:31:11.935Z,35.00
2023-04-20T13:33:39.698Z,34.60
2023-04-20T13:36:08.990Z,34.40
2023-04-20T13:38:37.076Z,33.90
2023-04-20T13:41:05.113Z,33.30
2023-04-20T13:43:32.896Z,32.90
2023-04-20T13:46:00.786Z,32.70
2023-04-20T13:48:28.645Z,32.80
2023-04-20T13:50:56.195Z,32.70
2023-04-20T13:53:24.057Z,32.80
2023-04-20T13:55:51.809Z,32.10
2023-04-20T13:58:19.713Z,31.60
2023-04-20T14:00:47.704Z,31.70
2023-04-20T14:03:19.807Z,31.60
2023-04-20T14:05:48.488Z,31.00
2023-04-20T14:08:17.153Z,30.60
2023-04-20T14:10:46.436Z,30.10
2023-04-20T14:13:15.263Z,30.40
2023-04-20T14:15:43.570Z,30.50
2023-04-20T14:18:11.605Z,30.20
2023-04-20T14:20:40.153Z,30.40
2023-04-20T14:23:17.100Z,30.30
2023-04-20T14:25:47.865Z,30.20
2023-04-20T14:28:16.884Z,29.80
2023-04-20T14:30:46.054Z,29.80
2023-04-20T14:33:13.998Z,29.90
2023-04-20T14:35:42.857Z,30.20
2023-04-20T14:38:10.928Z,30.50
2023-04-20T14:40:39.968Z,30.90
2023-04-20T14:43:08.229Z,31.20
2023-04-20T14:45:36.482Z,31.30
2023-04-20T14:48:04.437Z,31.70
2023-04-20T14:50:32.620Z,31.80
2023-04-20T14:53:00.301Z,32.20
2023-04-20T14:55:29.737Z,32.60
2023-04-20T14:57:57.932Z,33.20
2023-04-20T15:00:28.384Z,33.40
2023-04-20T15:02:56.801Z,33.70
2023-04-20T15:05:26.861Z,34.00
2023-04-20T15:07:54.680Z,34.50
2023-04-20T15:10:22.393Z,35.00
2023-04-20T15:12:50.082Z,35.60
2023-04-20T15:15:18.156Z,36.10
2023-04-20T15:17:47.080Z,37.50
2023-04-20T15:20:15.461Z,39.60
2023-04-20T15:22:43.561Z,41.30
2023-04-20T15:25:11.437Z,42.90
2023-04-20T15:27:39.366Z,44.20
2023-04-20T15:30:07.901Z,45.30
2023-04-20T15:32:35.556Z,46.40
2023-04-20T15:35:03.513Z,47.30
2023-04-20T15:37:31.492Z,48.10
2023-04-20T15:39:59.325Z,49.00
2023-04-20T15:42:27.593Z,50.20
2023-04-20T15:44:55.377Z,51.10
2023-04-20T15:47:23.098Z,51.50
2023-04-20T15:49:50.877Z,52.10
2023-04-20T15:52:18.808Z,52.70
2023-04-20T15:54:47.569Z,53.60
2023-04-20T15:57:15.212Z,54.90
2023-04-20T15:59:44.054Z,56.00
2023-04-20T16:02:11.778Z,57.10
2023-04-20T16:04:39.736Z,57.70
2023-04-20T16:07:09.169Z,58.40
2023-04-20T16:09:37.110Z,59.10
2023-04-20T16:12:05.230Z,60.80
2023-04-20T16:14:32.916Z,61.70
2023-04-20T16:17:03.644Z,63.50
2023-04-20T16:19:31.626Z,64.90
2023-04-20T16:21:59.510Z,65.60
2023-04-20T16:24:27.360Z,66.80
2023-04-20T16:26:56.907Z,67.70
2023-04-20T16:29:24.946Z,68.70
2023-04-20T16:31:52.801Z,70.00
2023-04-20T16:34:20.807Z,71.10
2023-04-20T16:36:50.333Z,72.20
2023-04-20T16:39:18.777Z,73.30
2023-04-20T16:41:47.328Z,74.50
2023-04-20T16:44:17.122Z,75.50
2023-04-20T16:46:48.398Z,76.40
2023-04-20T16:49:16.639Z,77.40
2023-04-20T16:51:44.524Z,78.50
2023-04-20T16:54:13.588Z,79.50
2023-04-20T16:56:41.396Z,80.60
2023-04-20T16:59:09.849Z,81.70
2023-04-20T17:01:38.227Z,82.60
2023-04-20T17:04:10.962Z,83.40
2023-04-20T17:06:41.905Z,84.60
2023-04-20T17:09:11.518Z,85.30
2023-04-20T17:11:39.951Z,85.80
2023-04-20T17:14:09.524Z,86.30
2023-04-20T17:16:37.564Z,86.70
2023-04-20T17:19:05.944Z,87.60
2023-04-20T17:21:33.701Z,88.20
2023-04-20T17:24:01.539Z,88.80
2023-04-20T17:26:29.476Z,89.60
2023-04-20T17:28:57.500Z,90.00
2023-04-20T17:31:25.613Z,90.20
2023-04-20T17:33:53.933Z,90.60
2023-04-20T17:36:21.986Z,90.90
2023-04-20T17:38:50.537Z,91.40
2023-04-20T17:41:18.719Z,91.70
2023-04-20T17:43:46.698Z,91.90
2023-04-20T17:46:16.155Z,92.30
2023-04-20T17:48:44.292Z,92.60
2023-04-20T17:51:15.707Z,92.80
2023-04-20T17:53:44.094Z,93.00
2023-04-20T17:56:12.931Z,93.00
2023-04-20T17:58:41.052Z,93.00
2023-04-20T18:01:09.157Z,93.00
2023-04-20T18:03:37.670Z,93.10
2023-04-20T18:06:05.796Z,93.20
2023-04-20T18:08:34.936Z,93.30
2023-04-20T18:11:02.628Z,93.30
2023-04-20T18:13:30.397Z,93.40
2023-04-20T18:15:59.886Z,93.50
2023-04-20T18:18:28.488Z,93.60
2023-04-20T18:20:56.924Z,93.70
2023-04-20T18:23:24.995Z,93.80
2023-04-20T18:25:53.711Z,94.00
2023-04-20T18:28:21.443Z,94.20
2023-04-20T18:30:50.419Z,94.30
2023-04-20T18:33:18.350Z,94.40
2023-04-20T18:35:46.352Z,94.40
2023-04-20T18:38:14.114Z,94.50
2023-04-20T18:40:41.786Z,94.50
2023-04-20T18:43:10.755Z,94.30
2023-04-20T18:45:38.655Z,94.40
2023-04-20T18:48:06.739Z,94.50
2023-04-20T18:50:35.128Z,94.40
2023-04-20T18:53:05.179Z,94.50
2023-04-20T18:55:33.409Z,94.50
2023-04-20T18:58:01.584Z,94.60
2023-04-20T19:00:29.738Z,94.70
2023-04-20T19:02:58.629Z,94.80
2023-04-20T19:05:26.631Z,94.80
2023-04-20T19:07:54.471Z,94.90
2023-04-20T19:10:22.480Z,94.90
2023-04-20T19:12:50.323Z,95.00
2023-04-20T19:15:25.334Z,95.10
2023-04-20T19:17:55.817Z,95.20
2023-04-20T19:20:24.091Z,95.20
2023-04-20T19:22:52.125Z,95.20
2023-04-20T19:25:20.575Z,95.30
2023-04-20T19:27:48.285Z,95.30
2023-04-20T19:30:16.218Z,95.40
2023-04-20T19:32:44.090Z,95.50
2023-04-20T19:35:12.500Z,95.50
2023-04-20T19:37:41.270Z,95.50
2023-04-20T19:40:09.375Z,95.60
2023-04-20T19:42:37.433Z,95.60
2023-04-20T19:45:05.927Z,95.60
2023-04-20T19:47:33.749Z,95.70
2023-04-20T19:50:03.627Z,95.80
2023-04-20T19:52:34.361Z,95.90
2023-04-20T19:55:03.995Z,95.90
2023-04-20T19:57:32.081Z,95.90
2023-04-20T20:00:00.273Z,95.90
2023-04-20T20:02:28.131Z,96.00
2023-04-20T20:04:56.142Z,96.00
2023-04-20T20:07:26.137Z,96.10
2023-04-20T20:09:53.980Z,96.10
2023-04-20T20:12:21.584Z,96.20
2023-04-20T20:14:51.046Z,96.20
2023-04-20T20:17:19.517Z,96.20
2023-04-20T20:19:47.135Z,96.30
2023-04-20T20:22:14.582Z,96.30
2023-04-20T20:24:44.630Z,96.30
2023-04-20T20:27:12.412Z,96.40
2023-04-20T20:29:40.161Z,96.50
2023-04-20T20:32:08.214Z,96.60
2023-04-20T20:34:36.583Z,96.60
2023-04-20T20:37:04.735Z,96.70
2023-04-20T20:39:32.494Z,96.80
2023-04-20T20:42:02.158Z,96.90
2023-04-20T20:44:34.277Z,97.00
2023-04-20T20:47:02.202Z,97.00
2023-04-20T20:49:30.000Z,97.00
2023-04-20T20:51:57.615Z,97.00
2023-04-20T20:54:25.577Z,97.00
2023-04-20T20:56:53.255Z,97.00
2023-04-20T20:59:21.170Z,97.00
2023-04-20T21:01:48.857Z,97.00
2023-04-20T21:04:16.693Z,97.10
2023-04-20T21:06:44.399Z,97.00
2023-04-20T21:09:16.172Z,97.10
2023-04-20T21:11:45.221Z,97.10
2023-04-20T21:14:13.301Z,97.10
2023-04-20T21:16:43.460Z,97.10
2023-04-20T21:19:11.233Z,97.10
2023-04-20T21:21:38.784Z,97.10
2023-04-20T21:24:08.183Z,97.10
2023-04-20T21:26:36.124Z,97.10
2023-04-20T21:29:03.995Z,97.10
2023-04-20T21:31:32.694Z,97.10
2023-04-20T21:34:03.216Z,97.20
2023-04-20T21:36:33.160Z,97.20
2023-04-20T21:39:01.026Z,97.20
2023-04-20T21:41:29.889Z,97.30
2023-04-20T21:43:57.927Z,97.30
2023-04-20T21:46:26.105Z,97.30
2023-04-20T21:48:54.708Z,97.30
2023-04-20T21:51:22.630Z,97.30
2023-04-20T21:53:50.447Z,97.30
2023-04-20T21:56:19.271Z,97.30
2023-04-20T21:58:46.992Z,97.40
2023-04-20T22:01:14.624Z,97.40
2023-04-20T22:03:42.870Z,97.40
2023-04-20T22:06:14.014Z,97.50
2023-04-20T22:08:43.335Z,97.50
2023-04-20T22:11:14.754Z,97.80
2023-04-20T22:13:42.572Z,97.50
2023-04-20T22:16:11.182Z,97.60
2023-04-20T22:18:39.137Z,97.60
2023-04-20T22:21:07.195Z,97.70
2023-04-20T22:23:35.690Z,97.80
2023-04-20T22:26:03.572Z,97.80
2023-04-20T22:28:31.667Z,97.80
2023-04-20T22:31:00.443Z,97.90
2023-04-20T22:33:28.280Z,97.90
2023-04-20T22:35:56.146Z,98.00
2023-04-20T22:38:24.464Z,98.00
2023-04-20T22:40:55.243Z,98.10
2023-04-20T22:43:26.807Z,98.10
2023-04-20T22:45:56.686Z,98.10
2023-04-20T22:48:24.798Z,98.20
2023-04-20T22:50:53.399Z,98.20
2023-04-20T22:53:24.829Z,98.20
2023-04-20T22:55:53.182Z,98.30
2023-04-20T22:58:22.083Z,98.30
2023-04-20T23:00:50.480Z,98.40
2023-04-20T23:03:18.446Z,98.40
2023-04-20T23:05:46.519Z,98.50
2023-04-20T23:08:14.799Z,98.50
2023-04-20T23:10:42.866Z,98.60
2023-04-20T23:13:16.806Z,98.60
2023-04-20T23:15:44.974Z,98.80
2023-04-20T23:18:12.823Z,98.80
2023-04-20T23:20:43.548Z,98.80
2023-04-20T23:23:12.250Z,98.70
2023-04-20T23:25:41.032Z,98.80
2023-04-20T23:28:09.135Z,98.80
2023-04-20T23:30:37.365Z,98.90
2023-04-20T23:33:06.038Z,98.90
2023-04-20T23:35:37.821Z,98.90
2023-04-20T23:38:06.326Z,98.90
2023-04-20T23:40:34.733Z,99.00
2023-04-20T23:43:03.283Z,98.90
2023-04-20T23:45:31.329Z,99.00
2023-04-20T23:47:59.583Z,99.00
2023-04-20T23:50:33.409Z,99.00
2023-04-20T23:53:06.032Z,99.10
2023-04-20T23:55:34.771Z,99.10
2023-04-20T23:58:02.662Z,99.10
